createdAt,value
2022-09-13T00:01:05.068Z,0
2022-09-13T00:06:27.865Z,0
2022-09-13T00:11:57.835Z,0
2022-09-13T00:17:20.920Z,0
2022-09-13T00:22:43.650Z,0
2022-09-13T00:28:06.246Z,0
2022-09-13T00:33:32.096Z,0
2022-09-13T00:38:54.839Z,0
2022-09-13T00:44:18.644Z,0
2022-09-13T00:49:47.151Z,0
2022-09-13T00:55:09.778Z,0
2022-09-13T01:00:32.095Z,0
2022-09-13T01:05:54.667Z,0
2022-09-13T01:11:20.122Z,0
2022-09-13T01:16:48.169Z,0
2022-09-13T01:27:38.852Z,0
2022-09-13T01:33:01.165Z,0
2022-09-13T01:38:35.675Z,0
2022-09-13T01:43:58.128Z,0
2022-09-13T01:49:21.348Z,0
2022-09-13T01:54:44.402Z,0
2022-09-13T02:00:07.040Z,0
2022-09-13T02:05:29.854Z,0
2022-09-13T02:10:52.265Z,0
2022-09-13T02:16:15.638Z,0
2022-09-13T02:21:38.463Z,0
2022-09-13T02:27:00.927Z,0
2022-09-13T02:32:26.618Z,0
2022-09-13T02:37:51.909Z,0
2022-09-13T02:43:14.412Z,0
2022-09-13T02:48:48.607Z,0
2022-09-13T02:54:11.797Z,0
2022-09-13T02:59:44.977Z,0
2022-09-13T03:05:07.249Z,0
2022-09-13T03:10:29.776Z,0
2022-09-13T03:26:39.927Z,0
2022-09-13T03:32:31.859Z,0
2022-09-13T03:37:54.546Z,0
2022-09-13T03:43:29.196Z,0
2022-09-13T03:48:55.035Z,0
2022-09-13T03:54:17.641Z,0
2022-09-13T03:59:40.135Z,0
2022-09-13T04:05:02.375Z,0
2022-09-13T04:10:24.960Z,0
2022-09-13T04:15:47.680Z,0
2022-09-13T04:21:10.115Z,0
2022-09-13T04:26:32.505Z,0
2022-09-13T04:31:55.609Z,0
2022-09-13T04:37:18.297Z,0
2022-09-13T04:48:03.311Z,0
2022-09-13T04:53:28.194Z,0
2022-09-13T04:58:50.652Z,0
2022-09-13T05:04:16.880Z,0
2022-09-13T05:09:42.722Z,4.6
2022-09-13T05:15:05.279Z,13.8
2022-09-13T05:20:28.038Z,20.3
2022-09-13T05:25:50.395Z,20
2022-09-13T05:31:13.127Z,23.4
2022-09-13T05:36:36.239Z,27.6
2022-09-13T05:41:58.810Z,32.1
2022-09-13T05:47:21.864Z,36.5
2022-09-13T05:52:44.616Z,39.2
2022-09-13T05:58:07.207Z,58.4
2022-09-13T06:03:43.678Z,68
2022-09-13T06:09:06.604Z,86
2022-09-13T06:19:51.777Z,133.3
2022-09-13T06:25:14.410Z,138
2022-09-13T06:30:36.857Z,141.3
2022-09-13T06:35:59.632Z,151.6
2022-09-13T06:41:31.351Z,149.3
2022-09-13T06:46:56.644Z,122.4
2022-09-13T06:52:19.296Z,134.4
2022-09-13T06:57:44.632Z,159.9
2022-09-13T07:03:06.912Z,201.6
2022-09-13T07:08:29.804Z,249.7
2022-09-13T07:13:52.779Z,257.6
2022-09-13T07:19:15.353Z,243.5
2022-09-13T07:24:37.932Z,242.5
2022-09-13T07:30:06.637Z,274.7
2022-09-13T07:35:38.244Z,329.5
2022-09-13T07:41:10.271Z,346.6
2022-09-13T07:46:33.290Z,373.7
2022-09-13T07:51:56.327Z,409.7
2022-09-13T07:57:19.293Z,477.7
2022-09-13T08:02:42.313Z,582.8
2022-09-13T08:51:51.848Z,1284.4
2022-09-13T08:57:15.030Z,1467.3
2022-09-13T09:02:37.940Z,1333.3
2022-09-13T09:08:03.606Z,1119.4
2022-09-13T09:13:27.094Z,1010.1
2022-09-13T09:19:06.777Z,1285.7
2022-09-13T09:24:30.229Z,1631
2022-09-13T09:29:53.194Z,1471.7
2022-09-13T09:35:15.042Z,1734.2
2022-09-13T09:40:39.830Z,1549.9
2022-09-13T09:46:05.020Z,1261.1
2022-09-13T09:51:28.334Z,1384.5
2022-09-13T09:56:54.223Z,1030.3
2022-09-13T10:02:24.673Z,1106.3
2022-09-13T10:13:16.514Z,1126.2
2022-09-13T10:18:45.477Z,1050.7
2022-09-13T10:24:10.694Z,870.4
2022-09-13T10:29:33.074Z,858.5
2022-09-13T10:34:56.432Z,818.9
2022-09-13T10:40:19.764Z,1035.7
2022-09-13T10:45:46.154Z,908.5
2022-09-13T10:51:09.053Z,813.4
2022-09-13T10:56:31.334Z,861.3
2022-09-13T11:01:54.960Z,1059.7
2022-09-13T11:07:23.581Z,903.2
2022-09-13T11:12:46.400Z,1438.2
2022-09-13T11:18:09.047Z,985.7
2022-09-13T11:23:31.590Z,1009.5
2022-09-13T11:28:55.170Z,1371.2
2022-09-13T11:34:45.210Z,992.1
2022-09-13T11:40:08.163Z,1261.6
2022-09-13T11:45:42.069Z,864.5
2022-09-13T11:56:27.244Z,765.2
2022-09-13T12:01:51.030Z,1171.3
2022-09-13T12:07:15.004Z,981.7
2022-09-13T12:12:37.023Z,844.6
2022-09-13T12:17:58.787Z,1176.8
2022-09-13T12:23:22.680Z,975.5
2022-09-13T12:28:53.103Z,846.4
2022-09-13T12:34:15.582Z,823.2
2022-09-13T12:39:38.905Z,649.9
2022-09-13T12:45:01.115Z,626.3
2022-09-13T12:50:49.076Z,1896.1
2022-09-13T12:56:13.269Z,1469.8
2022-09-13T13:01:35.362Z,774.3
2022-09-13T13:07:05.930Z,1004.3
2022-09-13T13:12:29.453Z,1038.8
2022-09-13T13:17:51.506Z,1394.9
2022-09-13T13:23:14.157Z,1018.8
2022-09-13T13:28:37.599Z,714.6
2022-09-13T13:34:00.226Z,891.7
2022-09-13T13:44:45.906Z,1013.7
2022-09-13T13:50:26.849Z,1039.1
2022-09-13T13:55:48.952Z,620.4
2022-09-13T14:01:11.375Z,524.8
2022-09-13T14:06:33.607Z,513.2
2022-09-13T14:11:55.763Z,496.9
2022-09-13T14:17:31.039Z,545.6
2022-09-13T14:22:53.746Z,454.9
2022-09-13T14:28:20.872Z,326.1
2022-09-13T14:33:43.600Z,256.3
2022-09-13T14:45:08.967Z,194.1
2022-09-13T14:50:31.519Z,144.8
2022-09-13T14:55:53.724Z,160.4
2022-09-13T15:02:45.715Z,174.3
2022-09-13T15:08:08.832Z,175.2
2022-09-13T15:13:31.703Z,166.5
2022-09-13T15:18:54.591Z,148.8
2022-09-13T15:24:17.522Z,129.3
2022-09-13T15:29:40.219Z,120
2022-09-13T15:35:03.700Z,114.7
2022-09-13T15:40:27.547Z,115.3
2022-09-13T15:45:50.657Z,99.3
2022-09-13T15:51:12.990Z,78.4
2022-09-13T15:56:38.771Z,65.3
2022-09-13T16:07:25.983Z,58.6
2022-09-13T16:12:51.607Z,44.8
2022-09-13T16:18:15.142Z,42.6
2022-09-13T16:23:40.716Z,54.9
2022-09-13T16:29:03.486Z,64.7
2022-09-13T16:34:25.888Z,63.5
2022-09-13T16:39:48.663Z,63.9
2022-09-13T16:45:11.957Z,64.8
2022-09-13T16:50:36.852Z,50
2022-09-13T16:56:06.690Z,45.3
2022-09-13T17:01:30.029Z,35.9
2022-09-13T17:06:55.421Z,26.4
2022-09-13T17:12:17.970Z,19
2022-09-13T17:17:42.764Z,16.4
2022-09-13T17:23:05.458Z,16.3
2022-09-13T17:28:28.196Z,14.3
2022-09-13T17:33:50.967Z,16
2022-09-13T17:40:46.625Z,10
2022-09-13T17:46:10.011Z,0
2022-09-13T17:51:32.854Z,0
2022-09-13T17:56:55.158Z,0
2022-09-13T18:02:18.081Z,0
2022-09-13T18:07:41.266Z,0
2022-09-13T18:13:04.157Z,0
2022-09-13T18:23:49.220Z,0
2022-09-13T18:29:11.867Z,0
2022-09-13T18:34:34.208Z,0
2022-09-13T18:39:57.306Z,0
2022-09-13T18:50:36.755Z,0
2022-09-13T18:55:59.720Z,0
2022-09-13T19:06:30.479Z,0
2022-09-13T19:11:53.667Z,0
2022-09-13T19:17:16.560Z,0
2022-09-13T19:22:39.202Z,0
2022-09-13T19:28:01.762Z,0
2022-09-13T19:33:24.898Z,0
2022-09-13T19:38:47.399Z,0
2022-09-13T19:44:10.286Z,0
2022-09-13T19:54:55.511Z,0
2022-09-13T20:00:19.171Z,0
2022-09-13T20:05:41.654Z,0
2022-09-13T20:11:04.123Z,0
2022-09-13T20:16:27.129Z,0
2022-09-13T20:21:49.794Z,0
2022-09-13T20:27:12.182Z,0
2022-09-13T20:32:35.392Z,0
2022-09-13T20:38:00.823Z,0
2022-09-13T20:43:23.468Z,0
2022-09-13T20:48:55.071Z,0
2022-09-13T20:54:17.802Z,0
2022-09-13T20:59:40.182Z,0
2022-09-13T21:05:02.622Z,0
2022-09-13T21:10:28.024Z,0
2022-09-13T21:15:53.327Z,0
2022-09-13T21:21:16.000Z,0
2022-09-13T21:26:38.773Z,0
2022-09-13T21:37:26.962Z,0
2022-09-13T21:42:49.523Z,0
2022-09-13T21:48:12.085Z,0
2022-09-13T21:53:35.028Z,0
2022-09-13T21:58:57.403Z,0
2022-09-13T22:04:22.254Z,0
2022-09-13T22:09:45.501Z,0
2022-09-13T22:15:07.954Z,0
2022-09-13T22:20:34.067Z,0
2022-09-13T22:25:56.527Z,0
2022-09-13T22:31:21.817Z,0
2022-09-13T22:36:44.538Z,0
2022-09-13T22:42:07.242Z,0
2022-09-13T22:47:29.717Z,0
2022-09-13T22:52:52.080Z,0
2022-09-13T22:58:15.089Z,0
2022-09-13T23:14:29.739Z,0
2022-09-13T23:25:14.753Z,0
2022-09-13T23:30:51.342Z,0
2022-09-13T23:36:14.285Z,0
2022-09-13T23:41:39.580Z,0
2022-09-13T23:47:02.471Z,0
2022-09-13T23:57:52.436Z,0
